Weather at Kalnes Sykehus Heliport

Public forecast

Using degrees Celsius for public forecast. Weather courtesy of forecast.io.

Closest aviation weather report (METAR) to Kalnes Sykehus Heliport

Closest report is Moss Airport, Rygge, 8.1 nm (15.1 km) WNW. Retrieved 2021/04/11 23:20 UTC (24 minutes ago):

ENRY 112320Z AUTO 02010KT 7000NDV -RASN VV009 01/M00 Q1012 REDZ RERA RESHRA

Closest aviation forecast (TAF) to Kalnes Sykehus Heliport

Closest forecast is Moss Airport, Rygge, 8.1 nm (15.1 km) WNW. Retrieved 2021/04/11 18:03 UTC (6 hours ago):

TAF TAF ENRY 111700Z 1118/1218 04010KT 9999 -RASN BKN015 TEMPO 1118/1214 1200 SN VV008 PROB40 TEMPO 1214/1218 1200 SHSN BKN008 FEW020CB